createdAt,value
2017-09-05T00:00:40.171Z,5.90
2017-09-05T00:03:07.633Z,5.10
2017-09-05T00:05:35.115Z,5.27
2017-09-05T00:08:08.783Z,5.10
2017-09-05T00:10:47.063Z,5.00
2017-09-05T00:13:21.373Z,5.50
2017-09-05T00:15:52.586Z,5.03
2017-09-05T00:18:22.630Z,5.40
2017-09-05T00:20:50.091Z,5.23
2017-09-05T00:23:17.553Z,5.37
2017-09-05T00:25:45.101Z,5.57
2017-09-05T00:28:12.574Z,5.13
2017-09-05T00:30:40.049Z,5.70
2017-09-05T00:33:07.531Z,4.80
2017-09-05T00:35:34.996Z,5.57
2017-09-05T00:38:02.469Z,5.30
2017-09-05T00:40:29.945Z,5.00
2017-09-05T00:42:57.405Z,5.40
2017-09-05T00:45:24.890Z,5.47
2017-09-05T00:47:52.382Z,6.30
2017-09-05T00:50:19.837Z,5.20
2017-09-05T00:52:47.313Z,5.47
2017-09-05T00:55:14.782Z,5.87
2017-09-05T00:57:42.246Z,6.17
2017-09-05T01:00:09.727Z,5.77
2017-09-05T01:02:37.211Z,6.07
2017-09-05T01:05:04.662Z,5.93
2017-09-05T01:07:32.149Z,6.97
2017-09-05T01:09:59.622Z,6.93
2017-09-05T01:12:27.094Z,7.20
2017-09-05T01:14:54.561Z,7.30
2017-09-05T01:17:22.029Z,6.43
2017-09-05T01:19:49.533Z,6.50
2017-09-05T01:22:16.993Z,6.03
2017-09-05T01:24:44.464Z,5.70
2017-09-05T01:27:11.929Z,6.27
2017-09-05T01:29:39.385Z,5.93
2017-09-05T01:32:06.859Z,6.57
2017-09-05T01:34:34.354Z,5.73
2017-09-05T01:37:01.821Z,6.50
2017-09-05T01:39:29.276Z,6.73
2017-09-05T01:41:56.753Z,6.00
2017-09-05T01:44:24.212Z,6.03
2017-09-05T01:46:51.673Z,7.17
2017-09-05T01:49:19.141Z,6.23
2017-09-05T01:51:46.603Z,6.70
2017-09-05T01:54:14.071Z,6.43
2017-09-05T01:56:41.541Z,6.13
2017-09-05T01:59:09.078Z,6.80
2017-09-05T02:01:36.541Z,7.30
2017-09-05T02:04:04.017Z,7.57
2017-09-05T02:06:31.493Z,7.37
2017-09-05T02:08:58.954Z,6.50
2017-09-05T02:11:26.481Z,7.20
2017-09-05T02:13:54.053Z,7.70
2017-09-05T02:16:21.514Z,8.37
2017-09-05T02:18:48.986Z,7.27
2017-09-05T02:21:16.528Z,7.10
2017-09-05T02:23:44.059Z,7.27
2017-09-05T02:26:11.524Z,7.83
2017-09-05T02:28:38.994Z,7.97
2017-09-05T02:31:06.557Z,8.07
2017-09-05T02:33:34.012Z,7.50
2017-09-05T02:36:01.488Z,7.50
2017-09-05T02:38:29.030Z,8.30
2017-09-05T02:40:56.787Z,8.30
2017-09-05T02:43:24.246Z,7.37
2017-09-05T02:45:52.333Z,7.87
2017-09-05T02:48:19.789Z,7.30
2017-09-05T02:50:47.338Z,7.87
2017-09-05T02:53:14.805Z,8.57
2017-09-05T02:55:42.265Z,7.70
2017-09-05T02:58:09.756Z,7.80
2017-09-05T03:00:37.211Z,8.30
2017-09-05T03:03:04.670Z,8.80
2017-09-05T03:05:32.169Z,8.83
2017-09-05T03:07:59.629Z,8.53
2017-09-05T03:10:27.086Z,8.90
2017-09-05T03:15:28.529Z,9.00
2017-09-05T03:17:55.991Z,8.60
2017-09-05T03:20:23.447Z,9.00
2017-09-05T03:22:50.922Z,8.03
2017-09-05T03:25:18.390Z,8.40
2017-09-05T03:27:45.846Z,7.90
2017-09-05T03:30:13.322Z,8.97
2017-09-05T03:32:40.788Z,8.80
2017-09-05T03:35:08.281Z,9.60
2017-09-05T03:37:36.145Z,8.90
2017-09-05T03:40:04.402Z,9.07
2017-09-05T03:42:31.857Z,8.37
2017-09-05T03:44:59.338Z,8.73
2017-09-05T03:47:26.811Z,8.97
2017-09-05T03:49:54.269Z,8.43
2017-09-05T03:52:22.256Z,8.60
2017-09-05T03:54:49.714Z,8.90
2017-09-05T03:57:17.314Z,8.23
2017-09-05T03:59:44.774Z,8.77
2017-09-05T04:02:12.253Z,7.10
2017-09-05T04:04:39.708Z,7.60
2017-09-05T04:07:07.190Z,7.43
2017-09-05T04:09:34.650Z,7.90
2017-09-05T04:12:02.110Z,7.20
2017-09-05T04:14:29.585Z,8.70
2017-09-05T04:16:57.039Z,8.77
2017-09-05T04:19:24.545Z,8.30
2017-09-05T04:21:52.125Z,8.90
2017-09-05T04:24:19.737Z,8.27
2017-09-05T04:26:47.215Z,8.13
2017-09-05T04:29:14.689Z,8.90
2017-09-05T04:31:42.164Z,9.43
2017-09-05T04:34:09.634Z,9.93
2017-09-05T04:36:37.151Z,10.37
2017-09-05T04:39:05.369Z,9.90
2017-09-05T04:41:32.850Z,9.70
2017-09-05T04:44:00.321Z,9.87
2017-09-05T04:46:27.794Z,8.77
2017-09-05T04:48:55.267Z,9.37
2017-09-05T04:51:22.746Z,9.23
2017-09-05T04:53:50.218Z,9.00
2017-09-05T04:56:17.688Z,8.53
2017-09-05T04:58:45.157Z,9.07
2017-09-05T05:01:12.642Z,8.67
2017-09-05T05:03:40.101Z,7.80
2017-09-05T05:06:07.574Z,9.17
2017-09-05T05:08:35.045Z,9.07
2017-09-05T05:11:02.561Z,8.77
2017-09-05T05:13:30.041Z,8.37
2017-09-05T05:15:57.505Z,9.23
2017-09-05T05:18:24.969Z,8.63
2017-09-05T05:20:52.447Z,9.30
2017-09-05T05:23:19.923Z,9.60
2017-09-05T05:25:47.380Z,8.63
2017-09-05T05:28:14.855Z,8.40
2017-09-05T05:30:42.325Z,7.77
2017-09-05T05:33:09.794Z,7.83
2017-09-05T05:35:37.337Z,7.83
2017-09-05T05:38:04.832Z,8.37
2017-09-05T05:40:32.272Z,7.80
2017-09-05T05:42:59.750Z,7.90
2017-09-05T05:45:27.305Z,8.80
2017-09-05T05:47:54.775Z,8.20
2017-09-05T05:50:22.237Z,7.80
2017-09-05T05:52:49.713Z,7.50
2017-09-05T05:55:17.313Z,8.03
2017-09-05T05:57:44.780Z,7.90
2017-09-05T06:00:12.259Z,7.33
2017-09-05T06:02:39.708Z,8.30
2017-09-05T06:05:07.178Z,8.07
2017-09-05T06:07:34.804Z,8.30
2017-09-05T06:10:02.285Z,7.43
2017-09-05T06:12:29.752Z,8.70
2017-09-05T06:14:57.365Z,8.13
2017-09-05T06:17:24.874Z,8.10
2017-09-05T06:19:52.375Z,8.10
2017-09-05T06:22:19.856Z,8.63
2017-09-05T06:24:48.162Z,7.93
2017-09-05T06:27:15.632Z,7.83
2017-09-05T06:29:43.101Z,8.17
2017-09-05T06:32:10.570Z,8.27
2017-09-05T06:34:38.071Z,9.40
2017-09-05T06:37:05.534Z,9.47
2017-09-05T06:39:33.006Z,7.63
2017-09-05T06:42:00.577Z,8.40
2017-09-05T06:44:28.069Z,9.90
2017-09-05T06:46:55.517Z,8.70
2017-09-05T06:49:23.099Z,9.20
2017-09-05T06:51:50.585Z,9.37
2017-09-05T06:54:18.061Z,8.93
2017-09-05T06:56:45.548Z,9.07
2017-09-05T06:59:13.009Z,8.63
2017-09-05T07:01:40.505Z,9.80
2017-09-05T07:04:07.970Z,9.50
2017-09-05T07:06:35.455Z,10.40
2017-09-05T07:09:02.916Z,8.40
2017-09-05T07:11:30.382Z,9.20
2017-09-05T07:13:57.852Z,9.03
2017-09-05T07:16:25.315Z,9.93
2017-09-05T07:18:52.798Z,10.10
2017-09-05T07:21:20.266Z,9.30
2017-09-05T07:23:47.746Z,9.60
2017-09-05T07:26:15.209Z,9.63
2017-09-05T07:28:42.681Z,10.00
2017-09-05T07:31:10.151Z,10.60
2017-09-05T07:33:37.610Z,10.03
2017-09-05T07:36:05.085Z,10.57
2017-09-05T07:38:32.581Z,9.60
2017-09-05T07:41:00.056Z,10.53
2017-09-05T07:43:27.537Z,10.00
2017-09-05T07:45:55.220Z,9.70
2017-09-05T07:48:22.705Z,9.90
2017-09-05T07:50:50.222Z,10.47
2017-09-05T07:53:17.674Z,10.97
2017-09-05T07:55:45.256Z,12.20
2017-09-05T07:58:12.873Z,10.80
2017-09-05T08:00:40.343Z,10.53
2017-09-05T08:03:07.817Z,10.80
2017-09-05T08:05:35.273Z,9.30
2017-09-05T08:08:02.973Z,10.33
2017-09-05T08:10:30.442Z,10.13
2017-09-05T08:12:57.909Z,9.90
2017-09-05T08:15:25.391Z,11.70
2017-09-05T08:17:52.894Z,11.23
2017-09-05T08:20:20.365Z,11.30
2017-09-05T08:22:47.832Z,11.50
2017-09-05T08:25:15.296Z,11.23
2017-09-05T08:27:42.769Z,11.80
2017-09-05T08:30:10.245Z,10.20
2017-09-05T08:32:37.715Z,10.10
2017-09-05T08:35:05.177Z,10.47
2017-09-05T08:37:32.658Z,10.57
2017-09-05T08:40:00.113Z,11.10
2017-09-05T08:42:27.689Z,10.33
2017-09-05T08:44:55.149Z,9.30
2017-09-05T08:47:22.608Z,8.30
2017-09-05T08:49:50.094Z,12.07
2017-09-05T08:52:17.568Z,9.67
2017-09-05T08:54:45.033Z,9.30
2017-09-05T08:57:12.521Z,8.47
2017-09-05T08:59:39.994Z,9.30
2017-09-05T09:02:07.469Z,8.53
2017-09-05T09:04:34.980Z,8.83
2017-09-05T09:07:02.449Z,9.13
2017-09-05T09:09:29.918Z,9.20
2017-09-05T09:11:57.377Z,10.43
2017-09-05T09:14:24.849Z,12.23
2017-09-05T09:16:52.328Z,8.20
2017-09-05T09:19:19.812Z,8.60
2017-09-05T09:21:47.293Z,8.40
2017-09-05T09:24:14.753Z,8.43
2017-09-05T09:26:42.260Z,7.47
2017-09-05T09:29:09.715Z,7.50
2017-09-05T09:31:37.205Z,6.90
2017-09-05T09:34:04.685Z,8.17
2017-09-05T09:36:32.161Z,5.77
2017-09-05T09:38:59.756Z,5.70
2017-09-05T09:41:27.225Z,6.47
2017-09-05T09:43:54.710Z,6.50
2017-09-05T09:46:22.180Z,6.10
2017-09-05T09:48:49.757Z,5.50
2017-09-05T09:51:17.244Z,6.50
2017-09-05T09:53:44.699Z,5.77
2017-09-05T09:56:12.169Z,5.70
2017-09-05T09:58:39.641Z,5.80
2017-09-05T10:01:07.113Z,6.77
2017-09-05T10:03:34.578Z,6.23
2017-09-05T10:06:02.045Z,4.97
2017-09-05T10:11:03.609Z,5.60
2017-09-05T10:13:31.093Z,6.67
2017-09-05T10:15:58.558Z,5.53
2017-09-05T10:18:26.134Z,5.57
2017-09-05T10:20:53.590Z,5.70
2017-09-05T10:23:21.074Z,5.40
2017-09-05T10:25:48.605Z,5.90
2017-09-05T10:28:16.161Z,4.70
2017-09-05T10:30:43.605Z,6.00
2017-09-05T10:33:11.093Z,5.47
2017-09-05T10:35:38.733Z,5.30
2017-09-05T10:38:06.267Z,5.30
2017-09-05T10:40:33.813Z,5.10
2017-09-05T10:43:01.264Z,4.87
2017-09-05T10:45:28.732Z,4.30
2017-09-05T10:47:56.315Z,4.70
2017-09-05T10:50:23.781Z,4.90
2017-09-05T10:52:51.241Z,4.20
2017-09-05T10:55:18.735Z,4.03
2017-09-05T10:57:46.202Z,5.40
2017-09-05T11:00:13.657Z,4.63
2017-09-05T11:02:41.127Z,4.33
2017-09-05T11:05:08.599Z,4.50
2017-09-05T11:07:36.069Z,4.23
2017-09-05T11:10:03.525Z,4.47
2017-09-05T11:12:30.985Z,3.97
2017-09-05T11:14:58.452Z,4.00
2017-09-05T11:17:25.915Z,4.23
2017-09-05T11:19:53.390Z,4.40
2017-09-05T11:22:20.848Z,4.07
2017-09-05T11:24:48.367Z,4.53
2017-09-05T11:27:15.842Z,4.03
2017-09-05T11:29:43.313Z,4.43
2017-09-05T11:32:10.805Z,4.57
2017-09-05T11:34:38.277Z,4.50
2017-09-05T11:37:05.758Z,4.47
2017-09-05T11:39:33.321Z,4.00
2017-09-05T11:42:00.902Z,3.87
2017-09-05T11:44:28.367Z,4.33
2017-09-05T11:46:55.829Z,3.87
2017-09-05T11:49:23.304Z,3.93
2017-09-05T11:51:50.765Z,3.57
2017-09-05T11:54:18.243Z,3.60
2017-09-05T11:56:45.707Z,3.67
2017-09-05T11:59:13.165Z,3.30
2017-09-05T12:01:40.765Z,3.33
2017-09-05T12:04:09.347Z,3.37
2017-09-05T12:06:36.806Z,4.07
2017-09-05T12:09:04.269Z,3.00
2017-09-05T12:11:31.742Z,3.40
2017-09-05T12:13:59.276Z,3.60
2017-09-05T12:16:26.749Z,2.77
2017-09-05T12:18:54.205Z,2.90
2017-09-05T12:21:21.694Z,3.10
2017-09-05T12:23:49.157Z,3.47
2017-09-05T12:26:16.673Z,3.20
2017-09-05T12:28:44.145Z,3.23
2017-09-05T12:31:11.629Z,3.40
2017-09-05T12:33:39.089Z,3.60
2017-09-05T12:36:06.594Z,3.30
2017-09-05T12:38:34.067Z,3.10
2017-09-05T12:41:01.527Z,4.20
2017-09-05T12:43:29.013Z,3.00
2017-09-05T12:45:56.473Z,2.60
2017-09-05T12:48:23.929Z,3.77
2017-09-05T12:50:51.413Z,3.67
2017-09-05T12:53:18.878Z,3.63
2017-09-05T12:55:46.349Z,3.63
2017-09-05T12:58:14.678Z,3.40
2017-09-05T13:00:42.153Z,3.30
2017-09-05T13:03:09.753Z,3.37
2017-09-05T13:05:37.299Z,3.40
2017-09-05T13:08:05.527Z,3.23
2017-09-05T13:10:33.190Z,3.20
2017-09-05T13:13:00.794Z,2.90
2017-09-05T13:15:28.280Z,3.47
2017-09-05T13:17:55.734Z,3.20
2017-09-05T13:20:23.201Z,3.87
2017-09-05T13:22:50.708Z,3.60
2017-09-05T13:25:18.319Z,3.90
2017-09-05T13:27:45.810Z,3.30
2017-09-05T13:30:13.291Z,3.87
2017-09-05T13:32:40.805Z,3.63
2017-09-05T13:35:08.321Z,3.17
2017-09-05T13:37:35.794Z,2.63
2017-09-05T13:40:03.304Z,2.67
2017-09-05T13:42:30.858Z,3.50
2017-09-05T13:44:58.366Z,3.20
2017-09-05T13:47:25.850Z,3.00
2017-09-05T13:49:53.317Z,2.37
2017-09-05T13:52:21.017Z,3.13
2017-09-05T13:54:48.473Z,2.57
2017-09-05T13:57:15.969Z,2.27
2017-09-05T13:59:43.442Z,2.13
2017-09-05T14:02:10.956Z,2.20
2017-09-05T14:04:38.557Z,2.20
2017-09-05T14:07:06.027Z,2.20
2017-09-05T14:09:33.513Z,2.40
2017-09-05T14:12:00.993Z,3.10
2017-09-05T14:14:28.549Z,2.20
2017-09-05T14:16:56.034Z,2.60
2017-09-05T14:19:23.519Z,2.20
2017-09-05T14:21:51.190Z,2.30
2017-09-05T14:24:18.662Z,2.00
2017-09-05T14:26:46.126Z,2.27
2017-09-05T14:29:13.598Z,2.20
2017-09-05T14:31:41.116Z,2.03
2017-09-05T14:34:08.592Z,1.90
2017-09-05T14:36:36.066Z,2.43
2017-09-05T14:39:03.533Z,2.40
2017-09-05T14:41:31.039Z,1.73
2017-09-05T14:43:58.529Z,1.70
2017-09-05T14:46:26.007Z,2.43
2017-09-05T14:48:53.493Z,1.67
2017-09-05T14:51:20.969Z,2.03
2017-09-05T14:53:48.442Z,2.10
2017-09-05T14:56:15.927Z,2.10
2017-09-05T14:58:43.963Z,2.10
2017-09-05T15:01:14.591Z,1.67
2017-09-05T15:03:42.133Z,2.03
2017-09-05T15:06:09.620Z,1.87
2017-09-05T15:08:37.085Z,1.77
2017-09-05T15:11:08.388Z,2.40
2017-09-05T15:13:41.170Z,1.87
2017-09-05T15:16:08.653Z,1.90
2017-09-05T15:18:36.326Z,2.00
2017-09-05T15:21:04.227Z,2.27
2017-09-05T15:23:31.708Z,2.27
2017-09-05T15:25:59.264Z,1.80
2017-09-05T15:28:26.742Z,1.97
2017-09-05T15:30:54.212Z,2.23
2017-09-05T15:33:21.905Z,1.70
2017-09-05T15:35:49.417Z,2.03
2017-09-05T15:38:16.904Z,2.00
2017-09-05T15:40:44.414Z,1.80
2017-09-05T15:43:11.910Z,1.70
2017-09-05T15:45:39.527Z,2.23
2017-09-05T15:48:07.013Z,1.97
2017-09-05T15:50:34.661Z,1.87
2017-09-05T15:53:02.125Z,2.00
2017-09-05T15:55:29.631Z,2.23
2017-09-05T15:57:57.169Z,1.87
2017-09-05T16:00:24.646Z,2.30
2017-09-05T16:02:52.125Z,2.30
2017-09-05T16:05:19.745Z,2.03
2017-09-05T16:07:47.237Z,2.10
2017-09-05T16:10:14.694Z,2.17
2017-09-05T16:12:42.162Z,2.40
2017-09-05T16:15:09.629Z,2.20
2017-09-05T16:17:37.125Z,2.07
2017-09-05T16:20:04.580Z,1.83
2017-09-05T16:22:32.041Z,2.13
2017-09-05T16:24:59.529Z,2.67
2017-09-05T16:27:27.047Z,2.30
2017-09-05T16:29:54.868Z,2.20
2017-09-05T16:32:22.739Z,2.30
2017-09-05T16:34:50.656Z,2.30
2017-09-05T16:37:18.478Z,2.60
2017-09-05T16:39:46.304Z,2.37
2017-09-05T16:42:14.204Z,2.40
2017-09-05T16:44:42.063Z,2.27
2017-09-05T16:47:09.941Z,2.20
2017-09-05T16:49:37.898Z,2.67
2017-09-05T16:52:05.879Z,2.07
2017-09-05T16:54:33.776Z,2.27
2017-09-05T16:57:01.700Z,2.43
2017-09-05T16:59:29.566Z,2.90
2017-09-05T17:01:57.273Z,2.20
2017-09-05T17:04:24.826Z,2.10
2017-09-05T17:06:52.296Z,2.10
2017-09-05T17:09:19.762Z,2.50
2017-09-05T17:11:47.213Z,2.30
2017-09-05T17:14:14.692Z,2.57
2017-09-05T17:16:42.151Z,2.00
2017-09-05T17:19:09.637Z,2.10
2017-09-05T17:21:37.204Z,2.70
2017-09-05T17:24:04.668Z,2.23
2017-09-05T17:26:32.130Z,2.17
2017-09-05T17:28:59.601Z,2.80
2017-09-05T17:31:27.126Z,2.33
2017-09-05T17:33:54.600Z,2.27
2017-09-05T17:36:22.065Z,2.43
2017-09-05T17:38:49.538Z,2.63
2017-09-05T17:41:16.995Z,2.87
2017-09-05T17:43:45.438Z,2.33
2017-09-05T17:46:12.894Z,2.47
2017-09-05T17:48:40.410Z,2.50
2017-09-05T17:51:07.894Z,2.10
2017-09-05T17:53:35.354Z,2.50
2017-09-05T17:56:02.968Z,2.70
2017-09-05T17:58:30.436Z,2.50
2017-09-05T18:00:57.913Z,2.90
2017-09-05T18:03:25.401Z,2.77
2017-09-05T18:05:52.881Z,2.70
2017-09-05T18:08:20.365Z,2.90
2017-09-05T18:10:47.957Z,2.30
2017-09-05T18:13:15.454Z,2.87
2017-09-05T18:15:42.913Z,2.77
2017-09-05T18:18:10.503Z,2.90
2017-09-05T18:23:11.741Z,3.33
2017-09-05T18:25:39.220Z,2.60
2017-09-05T18:28:07.328Z,2.80
2017-09-05T18:30:34.790Z,2.90
2017-09-05T18:33:02.281Z,2.80
2017-09-05T18:35:29.755Z,3.60
2017-09-05T18:37:57.235Z,3.40
2017-09-05T18:40:24.700Z,3.43
2017-09-05T18:42:52.165Z,3.27
2017-09-05T18:45:19.646Z,2.83
2017-09-05T18:47:47.360Z,3.50
2017-09-05T18:50:14.818Z,3.53
2017-09-05T18:52:42.309Z,3.70
2017-09-05T18:55:09.775Z,3.40
2017-09-05T18:57:37.290Z,3.80
2017-09-05T19:00:04.767Z,3.53
2017-09-05T19:02:32.243Z,4.60
2017-09-05T19:05:00.445Z,4.13
2017-09-05T19:07:28.069Z,3.70
2017-09-05T19:09:55.562Z,4.17
2017-09-05T19:12:23.054Z,3.90
2017-09-05T19:14:50.514Z,4.00
2017-09-05T19:17:17.985Z,3.87
2017-09-05T19:19:45.466Z,3.63
2017-09-05T19:22:12.935Z,3.47
2017-09-05T19:24:40.436Z,3.80
2017-09-05T19:27:07.931Z,3.77
2017-09-05T19:29:35.399Z,3.47
2017-09-05T19:32:02.929Z,3.00
2017-09-05T19:34:30.413Z,3.70
2017-09-05T19:36:57.906Z,3.40
2017-09-05T19:39:25.420Z,4.20
2017-09-05T19:41:53.072Z,3.30
2017-09-05T19:44:20.536Z,3.50
2017-09-05T19:46:48.047Z,3.83
2017-09-05T19:49:15.653Z,4.10
2017-09-05T19:51:43.251Z,4.13
2017-09-05T19:54:10.715Z,3.90
2017-09-05T19:56:38.216Z,3.20
2017-09-05T19:59:05.705Z,4.10
2017-09-05T20:01:33.201Z,3.80
2017-09-05T20:04:00.662Z,4.17
2017-09-05T20:06:28.141Z,3.97
2017-09-05T20:08:55.632Z,3.67
2017-09-05T20:11:23.339Z,4.07
2017-09-05T20:13:50.803Z,4.00
2017-09-05T20:16:18.254Z,3.83
2017-09-05T20:18:45.788Z,4.37
2017-09-05T20:21:13.427Z,4.33
2017-09-05T20:23:40.878Z,4.80
2017-09-05T20:26:08.476Z,4.30
2017-09-05T20:28:36.069Z,4.67
2017-09-05T20:31:03.566Z,4.67
2017-09-05T20:33:31.086Z,4.07
2017-09-05T20:35:58.556Z,4.10
2017-09-05T20:38:26.025Z,4.10
2017-09-05T20:40:53.558Z,4.27
2017-09-05T20:43:21.019Z,4.97
2017-09-05T20:45:48.518Z,4.60
2017-09-05T20:48:15.987Z,4.10
2017-09-05T20:50:43.529Z,4.03
2017-09-05T20:53:11.035Z,4.27
2017-09-05T20:55:38.649Z,4.53
2017-09-05T20:58:06.200Z,4.50
2017-09-05T21:00:34.267Z,4.30
2017-09-05T21:03:01.995Z,4.83
2017-09-05T21:05:29.462Z,4.47
2017-09-05T21:07:56.981Z,4.53
2017-09-05T21:10:24.548Z,5.07
2017-09-05T21:12:52.046Z,3.97
2017-09-05T21:15:19.510Z,4.20
2017-09-05T21:17:46.991Z,4.13
2017-09-05T21:20:14.461Z,4.30
2017-09-05T21:22:41.973Z,4.47
2017-09-05T21:25:09.454Z,4.37
2017-09-05T21:27:36.933Z,4.50
2017-09-05T21:30:04.403Z,4.13
2017-09-05T21:32:32.067Z,3.60
2017-09-05T21:34:59.545Z,5.70
2017-09-05T21:37:27.024Z,7.63
2017-09-05T21:39:54.507Z,3.27
2017-09-05T21:42:22.019Z,2.87
2017-09-05T21:44:49.529Z,2.80
2017-09-05T21:47:17.033Z,2.20
2017-09-05T21:49:45.235Z,2.47
2017-09-05T21:52:12.764Z,2.40
2017-09-05T21:54:40.230Z,1.90
2017-09-05T21:57:07.684Z,2.53
2017-09-05T21:59:35.178Z,2.00
2017-09-05T22:02:02.672Z,1.77
2017-09-05T22:04:30.167Z,2.10
2017-09-05T22:06:57.732Z,1.50
2017-09-05T22:09:25.261Z,1.73
2017-09-05T22:11:52.757Z,1.90
2017-09-05T22:14:37.051Z,1.80
2017-09-05T22:17:04.542Z,2.00
2017-09-05T22:19:37.691Z,1.90
2017-09-05T22:22:05.141Z,1.80
2017-09-05T22:24:38.422Z,2.00
2017-09-05T22:27:12.392Z,1.77
2017-09-05T22:29:39.879Z,1.60
2017-09-05T22:32:07.592Z,1.90
2017-09-05T22:34:35.049Z,1.60
2017-09-05T22:37:02.526Z,1.83
2017-09-05T22:39:29.996Z,1.87
2017-09-05T22:41:57.624Z,1.87
2017-09-05T22:44:25.106Z,1.80
2017-09-05T22:46:52.668Z,1.57
2017-09-05T22:49:20.127Z,2.07
2017-09-05T22:51:47.619Z,1.90
2017-09-05T22:54:15.136Z,1.70
2017-09-05T22:56:42.600Z,1.97
2017-09-05T22:59:10.083Z,1.80
2017-09-05T23:01:37.618Z,1.90
2017-09-05T23:04:05.119Z,1.87
2017-09-05T23:06:32.594Z,1.83
2017-09-05T23:09:00.058Z,1.90
2017-09-05T23:11:27.549Z,1.80
2017-09-05T23:13:55.128Z,2.97
2017-09-05T23:16:22.607Z,1.93
2017-09-05T23:18:50.139Z,1.90
2017-09-05T23:21:17.657Z,1.97
2017-09-05T23:23:45.128Z,2.10
2017-09-05T23:26:12.598Z,2.00
2017-09-05T23:28:40.058Z,1.90
2017-09-05T23:31:07.545Z,1.90
2017-09-05T23:33:35.035Z,1.90
2017-09-05T23:36:02.530Z,2.47
2017-09-05T23:38:30.065Z,1.90
2017-09-05T23:40:57.541Z,2.10
2017-09-05T23:43:25.042Z,2.17
2017-09-05T23:45:52.586Z,1.90
2017-09-05T23:48:20.068Z,1.80
2017-09-05T23:50:47.670Z,2.00
2017-09-05T23:55:49.168Z,2.37
2017-09-05T23:58:16.711Z,1.83
